sensor_id;sensor_type;location;lat;lon;timestamp;temperature;humidity
85696;DHT22;76240;50.902;3.892;2024-03-02T00:01:52;6.90;94.50
85696;DHT22;76240;50.902;3.892;2024-03-02T00:04:18;6.80;94.60
85696;DHT22;76240;50.902;3.892;2024-03-02T00:06:44;6.80;94.70
85696;DHT22;76240;50.902;3.892;2024-03-02T00:09:11;6.80;94.50
85696;DHT22;76240;50.902;3.892;2024-03-02T00:11:38;6.70;94.50
85696;DHT22;76240;50.902;3.892;2024-03-02T00:14:05;6.70;94.60
85696;DHT22;76240;50.902;3.892;2024-03-02T00:16:31;6.80;94.60
85696;DHT22;76240;50.902;3.892;2024-03-02T00:19:05;6.80;94.30
85696;DHT22;76240;50.902;3.892;2024-03-02T00:21:31;6.80;94.10
85696;DHT22;76240;50.902;3.892;2024-03-02T00:23:58;6.80;94.10
85696;DHT22;76240;50.902;3.892;2024-03-02T00:26:24;6.80;94.40
85696;DHT22;76240;50.902;3.892;2024-03-02T00:28:55;6.90;94.00
85696;DHT22;76240;50.902;3.892;2024-03-02T00:31:22;6.90;93.90
85696;DHT22;76240;50.902;3.892;2024-03-02T00:33:48;6.90;93.90
85696;DHT22;76240;50.902;3.892;2024-03-02T00:36:27;6.80;94.10
85696;DHT22;76240;50.902;3.892;2024-03-02T00:38:54;6.80;94.10
85696;DHT22;76240;50.902;3.892;2024-03-02T00:41:30;6.90;94.20
85696;DHT22;76240;50.902;3.892;2024-03-02T00:44:06;6.90;93.90
85696;DHT22;76240;50.902;3.892;2024-03-02T00:46:38;6.90;93.70
85696;DHT22;76240;50.902;3.892;2024-03-02T00:49:20;6.90;93.60
85696;DHT22;76240;50.902;3.892;2024-03-02T00:51:48;6.90;93.60
85696;DHT22;76240;50.902;3.892;2024-03-02T00:54:20;6.80;93.70
85696;DHT22;76240;50.902;3.892;2024-03-02T00:56:47;6.80;93.90
85696;DHT22;76240;50.902;3.892;2024-03-02T00:59:13;6.80;94.10
85696;DHT22;76240;50.902;3.892;2024-03-02T01:01:39;6.80;93.90
85696;DHT22;76240;50.902;3.892;2024-03-02T01:04:05;6.80;94.00
85696;DHT22;76240;50.902;3.892;2024-03-02T01:06:31;6.80;94.00
85696;DHT22;76240;50.902;3.892;2024-03-02T01:08:57;6.90;93.90
85696;DHT22;76240;50.902;3.892;2024-03-02T01:11:23;6.80;94.10
85696;DHT22;76240;50.902;3.892;2024-03-02T01:13:49;6.90;93.70
85696;DHT22;76240;50.902;3.892;2024-03-02T01:16:15;6.90;93.80
85696;DHT22;76240;50.902;3.892;2024-03-02T01:18:41;6.90;93.70
85696;DHT22;76240;50.902;3.892;2024-03-02T01:21:08;6.90;93.50
85696;DHT22;76240;50.902;3.892;2024-03-02T01:23:34;6.90;93.40
85696;DHT22;76240;50.902;3.892;2024-03-02T01:26:00;6.80;93.70
85696;DHT22;76240;50.902;3.892;2024-03-02T01:28:25;6.80;93.70
85696;DHT22;76240;50.902;3.892;2024-03-02T01:30:51;6.80;93.70
85696;DHT22;76240;50.902;3.892;2024-03-02T01:33:20;6.60;93.80
85696;DHT22;76240;50.902;3.892;2024-03-02T01:35:46;6.60;94.10
85696;DHT22;76240;50.902;3.892;2024-03-02T01:38:13;6.60;94.00
85696;DHT22;76240;50.902;3.892;2024-03-02T01:40:39;6.50;94.00
85696;DHT22;76240;50.902;3.892;2024-03-02T01:43:06;6.50;93.80
85696;DHT22;76240;50.902;3.892;2024-03-02T01:45:33;6.50;93.70
85696;DHT22;76240;50.902;3.892;2024-03-02T01:47:59;6.40;93.80
85696;DHT22;76240;50.902;3.892;2024-03-02T01:50:26;6.30;94.00
85696;DHT22;76240;50.902;3.892;2024-03-02T01:52:53;6.30;94.10
85696;DHT22;76240;50.902;3.892;2024-03-02T01:55:19;6.30;94.10
85696;DHT22;76240;50.902;3.892;2024-03-02T01:57:45;6.30;94.00
85696;DHT22;76240;50.902;3.892;2024-03-02T02:00:13;6.40;93.90
85696;DHT22;76240;50.902;3.892;2024-03-02T02:02:39;6.50;93.70
85696;DHT22;76240;50.902;3.892;2024-03-02T02:05:06;6.50;93.60
85696;DHT22;76240;50.902;3.892;2024-03-02T02:07:32;6.60;93.40
85696;DHT22;76240;50.902;3.892;2024-03-02T02:09:58;6.60;93.00
85696;DHT22;76240;50.902;3.892;2024-03-02T02:12:24;6.60;93.40
85696;DHT22;76240;50.902;3.892;2024-03-02T02:14:51;6.50;93.10
85696;DHT22;76240;50.902;3.892;2024-03-02T02:17:17;6.50;92.80
85696;DHT22;76240;50.902;3.892;2024-03-02T02:19:43;6.60;93.10
85696;DHT22;76240;50.902;3.892;2024-03-02T02:22:10;6.50;93.10
85696;DHT22;76240;50.902;3.892;2024-03-02T02:24:39;6.60;93.20
85696;DHT22;76240;50.902;3.892;2024-03-02T02:27:05;6.60;93.10
85696;DHT22;76240;50.902;3.892;2024-03-02T02:29:31;6.70;92.80
85696;DHT22;76240;50.902;3.892;2024-03-02T02:31:57;6.60;92.50
85696;DHT22;76240;50.902;3.892;2024-03-02T02:34:22;6.70;92.80
85696;DHT22;76240;50.902;3.892;2024-03-02T02:36:49;6.70;92.60
85696;DHT22;76240;50.902;3.892;2024-03-02T02:39:16;6.80;92.50
85696;DHT22;76240;50.902;3.892;2024-03-02T02:41:44;6.80;92.20
85696;DHT22;76240;50.902;3.892;2024-03-02T02:44:10;6.80;92.30
85696;DHT22;76240;50.902;3.892;2024-03-02T02:46:38;6.80;91.80
85696;DHT22;76240;50.902;3.892;2024-03-02T02:49:04;6.80;92.20
85696;DHT22;76240;50.902;3.892;2024-03-02T02:51:30;6.80;92.50
85696;DHT22;76240;50.902;3.892;2024-03-02T02:53:56;6.90;91.80
85696;DHT22;76240;50.902;3.892;2024-03-02T02:56:23;7.00;91.70
85696;DHT22;76240;50.902;3.892;2024-03-02T02:58:49;7.00;91.60
85696;DHT22;76240;50.902;3.892;2024-03-02T03:01:16;7.10;90.80
85696;DHT22;76240;50.902;3.892;2024-03-02T03:03:45;6.90;91.20
85696;DHT22;76240;50.902;3.892;2024-03-02T03:06:11;6.90;91.40
85696;DHT22;76240;50.902;3.892;2024-03-02T03:08:37;6.90;91.20
85696;DHT22;76240;50.902;3.892;2024-03-02T03:11:04;6.90;91.20
85696;DHT22;76240;50.902;3.892;2024-03-02T03:13:31;6.90;91.20
85696;DHT22;76240;50.902;3.892;2024-03-02T03:15:57;6.90;91.00
85696;DHT22;76240;50.902;3.892;2024-03-02T03:18:23;6.90;91.20
85696;DHT22;76240;50.902;3.892;2024-03-02T03:20:49;6.90;90.90
85696;DHT22;76240;50.902;3.892;2024-03-02T03:23:15;6.90;91.00
85696;DHT22;76240;50.902;3.892;2024-03-02T03:25:43;6.90;91.20
85696;DHT22;76240;50.902;3.892;2024-03-02T03:28:09;6.90;91.20
85696;DHT22;76240;50.902;3.892;2024-03-02T03:30:38;6.80;91.20
85696;DHT22;76240;50.902;3.892;2024-03-02T03:33:05;6.90;91.30
85696;DHT22;76240;50.902;3.892;2024-03-02T03:35:34;6.80;91.90
85696;DHT22;76240;50.902;3.892;2024-03-02T03:38:00;6.80;91.60
85696;DHT22;76240;50.902;3.892;2024-03-02T03:40:26;6.90;91.80
85696;DHT22;76240;50.902;3.892;2024-03-02T03:42:52;6.80;91.90
85696;DHT22;76240;50.902;3.892;2024-03-02T03:45:18;6.90;91.70
85696;DHT22;76240;50.902;3.892;2024-03-02T03:47:45;6.90;91.80
85696;DHT22;76240;50.902;3.892;2024-03-02T03:50:11;6.90;91.20
85696;DHT22;76240;50.902;3.892;2024-03-02T03:52:37;6.90;91.40
85696;DHT22;76240;50.902;3.892;2024-03-02T03:55:04;6.90;91.70
85696;DHT22;76240;50.902;3.892;2024-03-02T03:57:30;6.90;91.00
85696;DHT22;76240;50.902;3.892;2024-03-02T03:59:56;6.90;91.10
85696;DHT22;76240;50.902;3.892;2024-03-02T04:02:22;6.90;91.40
85696;DHT22;76240;50.902;3.892;2024-03-02T04:04:50;6.90;91.20
85696;DHT22;76240;50.902;3.892;2024-03-02T04:07:16;7.00;91.50
85696;DHT22;76240;50.902;3.892;2024-03-02T04:09:42;7.00;91.20
85696;DHT22;76240;50.902;3.892;2024-03-02T04:12:08;7.10;90.80
85696;DHT22;76240;50.902;3.892;2024-03-02T04:14:33;7.10;91.00
85696;DHT22;76240;50.902;3.892;2024-03-02T04:17:00;7.10;90.80
85696;DHT22;76240;50.902;3.892;2024-03-02T04:19:26;7.00;90.70
85696;DHT22;76240;50.902;3.892;2024-03-02T04:21:52;6.90;90.90
85696;DHT22;76240;50.902;3.892;2024-03-02T04:24:18;6.90;90.80
85696;DHT22;76240;50.902;3.892;2024-03-02T04:26:44;6.80;90.80
85696;DHT22;76240;50.902;3.892;2024-03-02T04:29:10;6.90;90.70
85696;DHT22;76240;50.902;3.892;2024-03-02T04:31:36;6.80;90.90
85696;DHT22;76240;50.902;3.892;2024-03-02T04:34:01;6.70;91.30
85696;DHT22;76240;50.902;3.892;2024-03-02T04:36:27;6.70;91.30
85696;DHT22;76240;50.902;3.892;2024-03-02T04:38:53;6.50;91.10
85696;DHT22;76240;50.902;3.892;2024-03-02T04:41:19;6.50;91.60
85696;DHT22;76240;50.902;3.892;2024-03-02T04:43:45;6.40;91.30
85696;DHT22;76240;50.902;3.892;2024-03-02T04:46:11;6.30;91.40
85696;DHT22;76240;50.902;3.892;2024-03-02T04:48:37;6.30;91.60
85696;DHT22;76240;50.902;3.892;2024-03-02T04:51:03;6.30;91.60
85696;DHT22;76240;50.902;3.892;2024-03-02T04:53:29;6.20;92.20
85696;DHT22;76240;50.902;3.892;2024-03-02T04:55:55;6.20;92.10
85696;DHT22;76240;50.902;3.892;2024-03-02T04:58:21;6.10;92.30
85696;DHT22;76240;50.902;3.892;2024-03-02T05:00:47;6.10;92.00
85696;DHT22;76240;50.902;3.892;2024-03-02T05:03:13;6.10;92.10
85696;DHT22;76240;50.902;3.892;2024-03-02T05:05:39;6.00;92.30
85696;DHT22;76240;50.902;3.892;2024-03-02T05:08:05;5.90;92.80
85696;DHT22;76240;50.902;3.892;2024-03-02T05:10:31;6.00;92.80
85696;DHT22;76240;50.902;3.892;2024-03-02T05:12:57;6.00;92.50
85696;DHT22;76240;50.902;3.892;2024-03-02T05:15:25;5.90;92.70
85696;DHT22;76240;50.902;3.892;2024-03-02T05:17:51;5.90;92.80
85696;DHT22;76240;50.902;3.892;2024-03-02T05:20:17;5.90;92.50
85696;DHT22;76240;50.902;3.892;2024-03-02T05:22:43;5.90;92.60
85696;DHT22;76240;50.902;3.892;2024-03-02T05:25:09;5.90;92.60
85696;DHT22;76240;50.902;3.892;2024-03-02T05:27:38;5.90;92.40
85696;DHT22;76240;50.902;3.892;2024-03-02T05:30:04;5.90;92.60
85696;DHT22;76240;50.902;3.892;2024-03-02T05:32:32;5.80;92.70
85696;DHT22;76240;50.902;3.892;2024-03-02T05:34:58;5.80;93.00
85696;DHT22;76240;50.902;3.892;2024-03-02T05:37:25;5.80;93.00
85696;DHT22;76240;50.902;3.892;2024-03-02T05:39:50;5.70;92.90
85696;DHT22;76240;50.902;3.892;2024-03-02T05:42:16;5.70;93.30
85696;DHT22;76240;50.902;3.892;2024-03-02T05:44:43;5.70;93.20
85696;DHT22;76240;50.902;3.892;2024-03-02T05:47:09;5.80;93.20
85696;DHT22;76240;50.902;3.892;2024-03-02T05:49:35;5.80;93.00
85696;DHT22;76240;50.902;3.892;2024-03-02T05:52:01;5.70;93.20
85696;DHT22;76240;50.902;3.892;2024-03-02T05:54:27;5.80;93.40
85696;DHT22;76240;50.902;3.892;2024-03-02T05:56:52;5.70;93.00
85696;DHT22;76240;50.902;3.892;2024-03-02T05:59:19;5.70;93.30
85696;DHT22;76240;50.902;3.892;2024-03-02T06:01:46;5.60;93.30
85696;DHT22;76240;50.902;3.892;2024-03-02T06:04:12;5.60;93.40
85696;DHT22;76240;50.902;3.892;2024-03-02T06:06:39;5.50;93.50
85696;DHT22;76240;50.902;3.892;2024-03-02T06:09:06;5.50;93.70
85696;DHT22;76240;50.902;3.892;2024-03-02T06:11:39;5.50;93.60
85696;DHT22;76240;50.902;3.892;2024-03-02T06:14:09;5.50;93.70
85696;DHT22;76240;50.902;3.892;2024-03-02T06:16:35;5.60;93.30
85696;DHT22;76240;50.902;3.892;2024-03-02T06:19:01;5.60;93.50
85696;DHT22;76240;50.902;3.892;2024-03-02T06:21:28;5.70;93.40
85696;DHT22;76240;50.902;3.892;2024-03-02T06:23:54;5.60;93.50
85696;DHT22;76240;50.902;3.892;2024-03-02T06:26:20;5.60;93.60
85696;DHT22;76240;50.902;3.892;2024-03-02T06:28:46;5.60;93.20
85696;DHT22;76240;50.902;3.892;2024-03-02T06:31:12;5.60;93.30
85696;DHT22;76240;50.902;3.892;2024-03-02T06:33:38;5.60;93.80
85696;DHT22;76240;50.902;3.892;2024-03-02T06:36:05;5.60;93.60
85696;DHT22;76240;50.902;3.892;2024-03-02T06:38:34;5.60;93.50
85696;DHT22;76240;50.902;3.892;2024-03-02T06:41:00;5.60;93.30
85696;DHT22;76240;50.902;3.892;2024-03-02T06:43:26;5.70;93.20
85696;DHT22;76240;50.902;3.892;2024-03-02T06:45:52;5.80;92.80
85696;DHT22;76240;50.902;3.892;2024-03-02T06:48:18;5.70;92.90
85696;DHT22;76240;50.902;3.892;2024-03-02T06:50:49;5.70;93.10
85696;DHT22;76240;50.902;3.892;2024-03-02T06:53:15;5.70;93.20
85696;DHT22;76240;50.902;3.892;2024-03-02T06:55:46;5.70;93.10
85696;DHT22;76240;50.902;3.892;2024-03-02T06:58:15;5.80;92.90
85696;DHT22;76240;50.902;3.892;2024-03-02T07:00:44;5.70;93.20
85696;DHT22;76240;50.902;3.892;2024-03-02T07:03:10;5.70;93.30
85696;DHT22;76240;50.902;3.892;2024-03-02T07:05:36;5.80;92.80
85696;DHT22;76240;50.902;3.892;2024-03-02T07:08:02;6.10;92.60
85696;DHT22;76240;50.902;3.892;2024-03-02T07:10:29;6.40;91.80
85696;DHT22;76240;50.902;3.892;2024-03-02T07:12:55;7.00;91.60
85696;DHT22;76240;50.902;3.892;2024-03-02T07:15:20;7.60;89.00
85696;DHT22;76240;50.902;3.892;2024-03-02T07:17:52;8.10;87.50
85696;DHT22;76240;50.902;3.892;2024-03-02T07:20:18;8.30;86.50
85696;DHT22;76240;50.902;3.892;2024-03-02T07:22:44;7.90;85.80
85696;DHT22;76240;50.902;3.892;2024-03-02T07:25:09;7.30;88.40
85696;DHT22;76240;50.902;3.892;2024-03-02T07:27:35;7.00;90.00
85696;DHT22;76240;50.902;3.892;2024-03-02T07:30:05;6.80;90.90
85696;DHT22;76240;50.902;3.892;2024-03-02T07:32:31;6.80;90.90
85696;DHT22;76240;50.902;3.892;2024-03-02T07:34:57;6.90;90.90
85696;DHT22;76240;50.902;3.892;2024-03-02T07:37:23;7.00;91.10
85696;DHT22;76240;50.902;3.892;2024-03-02T07:39:50;7.10;90.90
85696;DHT22;76240;50.902;3.892;2024-03-02T07:42:16;7.20;90.40
85696;DHT22;76240;50.902;3.892;2024-03-02T07:44:43;7.30;90.60
85696;DHT22;76240;50.902;3.892;2024-03-02T07:47:09;7.40;90.20
85696;DHT22;76240;50.902;3.892;2024-03-02T07:49:35;7.50;89.60
85696;DHT22;76240;50.902;3.892;2024-03-02T07:52:01;7.50;89.10
85696;DHT22;76240;50.902;3.892;2024-03-02T07:54:27;7.60;88.50
85696;DHT22;76240;50.902;3.892;2024-03-02T07:56:53;7.60;89.40
85696;DHT22;76240;50.902;3.892;2024-03-02T07:59:19;7.60;88.70
85696;DHT22;76240;50.902;3.892;2024-03-02T08:01:46;7.80;87.70
85696;DHT22;76240;50.902;3.892;2024-03-02T08:04:12;8.40;86.00
85696;DHT22;76240;50.902;3.892;2024-03-02T08:06:38;9.20;83.70
85696;DHT22;76240;50.902;3.892;2024-03-02T08:09:04;10.70;78.40
85696;DHT22;76240;50.902;3.892;2024-03-02T08:11:34;11.90;73.70
85696;DHT22;76240;50.902;3.892;2024-03-02T08:14:00;11.80;71.90
85696;DHT22;76240;50.902;3.892;2024-03-02T08:16:27;10.40;76.00
85696;DHT22;76240;50.902;3.892;2024-03-02T08:18:54;10.00;79.00
85696;DHT22;76240;50.902;3.892;2024-03-02T08:21:20;9.90;81.90
85696;DHT22;76240;50.902;3.892;2024-03-02T08:23:46;10.20;78.70
85696;DHT22;76240;50.902;3.892;2024-03-02T08:26:12;11.20;75.20
85696;DHT22;76240;50.902;3.892;2024-03-02T08:28:39;10.60;76.60
85696;DHT22;76240;50.902;3.892;2024-03-02T08:31:07;11.30;75.90
85696;DHT22;76240;50.902;3.892;2024-03-02T08:33:34;12.10;72.10
85696;DHT22;76240;50.902;3.892;2024-03-02T08:36:00;13.00;70.30
85696;DHT22;76240;50.902;3.892;2024-03-02T08:38:26;13.20;67.90
85696;DHT22;76240;50.902;3.892;2024-03-02T08:40:53;13.40;68.40
85696;DHT22;76240;50.902;3.892;2024-03-02T08:43:19;12.70;69.60
85696;DHT22;76240;50.902;3.892;2024-03-02T08:45:45;11.40;73.30
85696;DHT22;76240;50.902;3.892;2024-03-02T08:48:12;10.90;74.90
85696;DHT22;76240;50.902;3.892;2024-03-02T08:50:38;10.80;75.80
85696;DHT22;76240;50.902;3.892;2024-03-02T08:53:04;11.70;74.20
85696;DHT22;76240;50.902;3.892;2024-03-02T08:55:30;12.80;71.80
85696;DHT22;76240;50.902;3.892;2024-03-02T08:57:56;13.90;69.10
85696;DHT22;76240;50.902;3.892;2024-03-02T09:00:23;14.90;63.40
85696;DHT22;76240;50.902;3.892;2024-03-02T09:02:49;14.50;63.60
85696;DHT22;76240;50.902;3.892;2024-03-02T09:05:15;14.10;65.50
85696;DHT22;76240;50.902;3.892;2024-03-02T09:07:41;14.00;65.40
85696;DHT22;76240;50.902;3.892;2024-03-02T09:10:07;13.40;67.50
85696;DHT22;76240;50.902;3.892;2024-03-02T09:12:34;13.60;67.30
85696;DHT22;76240;50.902;3.892;2024-03-02T09:15:03;12.80;68.90
85696;DHT22;76240;50.902;3.892;2024-03-02T09:17:29;12.40;70.30
85696;DHT22;76240;50.902;3.892;2024-03-02T09:19:55;12.80;69.80
85696;DHT22;76240;50.902;3.892;2024-03-02T09:22:21;13.40;68.40
85696;DHT22;76240;50.902;3.892;2024-03-02T09:24:47;13.90;65.60
85696;DHT22;76240;50.902;3.892;2024-03-02T09:27:13;14.50;65.50
85696;DHT22;76240;50.902;3.892;2024-03-02T09:29:39;15.10;64.10
85696;DHT22;76240;50.902;3.892;2024-03-02T09:32:05;14.80;63.60
85696;DHT22;76240;50.902;3.892;2024-03-02T09:34:32;14.10;64.60
85696;DHT22;76240;50.902;3.892;2024-03-02T09:36:58;13.50;67.50
85696;DHT22;76240;50.902;3.892;2024-03-02T09:39:24;13.40;66.20
85696;DHT22;76240;50.902;3.892;2024-03-02T09:41:51;13.10;67.60
85696;DHT22;76240;50.902;3.892;2024-03-02T09:44:17;13.30;67.10
85696;DHT22;76240;50.902;3.892;2024-03-02T09:46:43;13.60;66.10
85696;DHT22;76240;50.902;3.892;2024-03-02T09:49:10;14.10;65.50
85696;DHT22;76240;50.902;3.892;2024-03-02T09:51:37;13.80;65.10
85696;DHT22;76240;50.902;3.892;2024-03-02T09:54:04;13.10;65.90
85696;DHT22;76240;50.902;3.892;2024-03-02T09:56:30;12.80;68.10
85696;DHT22;76240;50.902;3.892;2024-03-02T09:58:56;12.70;67.40
85696;DHT22;76240;50.902;3.892;2024-03-02T10:01:22;12.10;69.90
85696;DHT22;76240;50.902;3.892;2024-03-02T10:03:48;11.70;71.10
85696;DHT22;76240;50.902;3.892;2024-03-02T10:06:22;12.10;70.90
85696;DHT22;76240;50.902;3.892;2024-03-02T10:08:48;12.50;70.00
85696;DHT22;76240;50.902;3.892;2024-03-02T10:14:12;13.10;67.90
85696;DHT22;76240;50.902;3.892;2024-03-02T10:16:39;13.40;67.10
85696;DHT22;76240;50.902;3.892;2024-03-02T10:19:23;13.50;65.30
85696;DHT22;76240;50.902;3.892;2024-03-02T10:21:55;13.70;66.60
85696;DHT22;76240;50.902;3.892;2024-03-02T10:24:22;13.80;66.30
85696;DHT22;76240;50.902;3.892;2024-03-02T10:26:49;14.30;64.90
85696;DHT22;76240;50.902;3.892;2024-03-02T10:29:15;14.70;63.90
85696;DHT22;76240;50.902;3.892;2024-03-02T10:31:45;14.20;63.50
85696;DHT22;76240;50.902;3.892;2024-03-02T10:34:14;13.50;66.10
85696;DHT22;76240;50.902;3.892;2024-03-02T10:36:42;13.50;65.80
85696;DHT22;76240;50.902;3.892;2024-03-02T10:39:09;13.20;67.50
85696;DHT22;76240;50.902;3.892;2024-03-02T10:41:37;13.20;67.00
85696;DHT22;76240;50.902;3.892;2024-03-02T10:44:05;13.10;67.70
85696;DHT22;76240;50.902;3.892;2024-03-02T10:46:33;12.80;68.10
85696;DHT22;76240;50.902;3.892;2024-03-02T10:49:01;12.70;68.40
85696;DHT22;76240;50.902;3.892;2024-03-02T10:51:28;12.60;68.30
85696;DHT22;76240;50.902;3.892;2024-03-02T10:54:00;12.60;69.10
85696;DHT22;76240;50.902;3.892;2024-03-02T10:56:33;12.40;68.10
85696;DHT22;76240;50.902;3.892;2024-03-02T11:01:48;11.80;70.80
85696;DHT22;76240;50.902;3.892;2024-03-02T11:04:18;12.20;69.70
85696;DHT22;76240;50.902;3.892;2024-03-02T11:06:48;12.50;68.60
85696;DHT22;76240;50.902;3.892;2024-03-02T11:09:15;12.60;69.10
85696;DHT22;76240;50.902;3.892;2024-03-02T11:11:43;12.60;67.10
85696;DHT22;76240;50.902;3.892;2024-03-02T11:14:14;12.50;69.10
85696;DHT22;76240;50.902;3.892;2024-03-02T11:16:42;12.50;67.80
85696;DHT22;76240;50.902;3.892;2024-03-02T11:19:14;12.60;68.50
85696;DHT22;76240;50.902;3.892;2024-03-02T11:21:41;12.70;68.70
85696;DHT22;76240;50.902;3.892;2024-03-02T11:26:53;12.70;68.30
85696;DHT22;76240;50.902;3.892;2024-03-02T11:32:30;12.60;66.70
85696;DHT22;76240;50.902;3.892;2024-03-02T11:34:56;12.60;66.90
85696;DHT22;76240;50.902;3.892;2024-03-02T11:37:24;12.60;67.40
85696;DHT22;76240;50.902;3.892;2024-03-02T11:39:51;12.70;68.20
85696;DHT22;76240;50.902;3.892;2024-03-02T11:42:17;12.50;67.60
85696;DHT22;76240;50.902;3.892;2024-03-02T11:44:45;12.20;68.80
85696;DHT22;76240;50.902;3.892;2024-03-02T11:47:13;12.00;69.60
85696;DHT22;76240;50.902;3.892;2024-03-02T11:52:08;11.90;71.20
85696;DHT22;76240;50.902;3.892;2024-03-02T11:54:40;12.00;71.10
85696;DHT22;76240;50.902;3.892;2024-03-02T11:57:12;12.10;71.10
85696;DHT22;76240;50.902;3.892;2024-03-02T11:59:38;12.10;70.90
85696;DHT22;76240;50.902;3.892;2024-03-02T12:02:04;12.10;71.50
85696;DHT22;76240;50.902;3.892;2024-03-02T12:04:31;12.00;72.40
85696;DHT22;76240;50.902;3.892;2024-03-02T12:07:00;11.80;73.20
85696;DHT22;76240;50.902;3.892;2024-03-02T12:09:27;11.60;75.10
85696;DHT22;76240;50.902;3.892;2024-03-02T12:12:09;11.60;74.30
85696;DHT22;76240;50.902;3.892;2024-03-02T12:14:36;11.60;75.50
85696;DHT22;76240;50.902;3.892;2024-03-02T12:17:03;11.50;76.80
85696;DHT22;76240;50.902;3.892;2024-03-02T12:19:30;11.30;79.50
85696;DHT22;76240;50.902;3.892;2024-03-02T12:22:00;11.20;80.90
85696;DHT22;76240;50.902;3.892;2024-03-02T12:24:29;11.00;82.10
85696;DHT22;76240;50.902;3.892;2024-03-02T12:26:56;10.90;80.80
85696;DHT22;76240;50.902;3.892;2024-03-02T12:29:22;10.80;82.90
85696;DHT22;76240;50.902;3.892;2024-03-02T12:31:50;10.80;82.30
85696;DHT22;76240;50.902;3.892;2024-03-02T12:34:17;10.70;83.80
85696;DHT22;76240;50.902;3.892;2024-03-02T12:36:45;10.60;84.80
85696;DHT22;76240;50.902;3.892;2024-03-02T12:39:13;10.60;84.50
85696;DHT22;76240;50.902;3.892;2024-03-02T12:41:41;10.50;86.30
85696;DHT22;76240;50.902;3.892;2024-03-02T12:44:07;10.40;86.60
85696;DHT22;76240;50.902;3.892;2024-03-02T12:46:34;10.50;87.60
85696;DHT22;76240;50.902;3.892;2024-03-02T12:49:21;10.50;87.90
85696;DHT22;76240;50.902;3.892;2024-03-02T12:51:48;10.40;88.00
85696;DHT22;76240;50.902;3.892;2024-03-02T12:54:17;10.50;88.10
85696;DHT22;76240;50.902;3.892;2024-03-02T12:56:43;10.50;87.80
85696;DHT22;76240;50.902;3.892;2024-03-02T12:59:18;10.50;87.90
85696;DHT22;76240;50.902;3.892;2024-03-02T13:01:53;10.50;88.60
85696;DHT22;76240;50.902;3.892;2024-03-02T13:04:27;10.50;87.50
85696;DHT22;76240;50.902;3.892;2024-03-02T13:06:57;10.40;88.10
85696;DHT22;76240;50.902;3.892;2024-03-02T13:09:23;10.30;87.90
85696;DHT22;76240;50.902;3.892;2024-03-02T13:11:49;10.20;88.60
85696;DHT22;76240;50.902;3.892;2024-03-02T13:14:15;10.10;89.80
85696;DHT22;76240;50.902;3.892;2024-03-02T13:16:42;10.30;88.70
85696;DHT22;76240;50.902;3.892;2024-03-02T13:19:09;10.40;90.00
85696;DHT22;76240;50.902;3.892;2024-03-02T13:21:35;10.70;90.10
85696;DHT22;76240;50.902;3.892;2024-03-02T13:24:01;10.70;89.20
85696;DHT22;76240;50.902;3.892;2024-03-02T13:26:27;10.80;89.70
85696;DHT22;76240;50.902;3.892;2024-03-02T13:28:53;10.90;88.90
85696;DHT22;76240;50.902;3.892;2024-03-02T13:31:19;10.90;89.50
85696;DHT22;76240;50.902;3.892;2024-03-02T13:33:46;11.00;90.20
85696;DHT22;76240;50.902;3.892;2024-03-02T13:36:12;10.90;90.40
85696;DHT22;76240;50.902;3.892;2024-03-02T13:38:39;11.10;91.00
85696;DHT22;76240;50.902;3.892;2024-03-02T13:41:05;11.20;90.70
85696;DHT22;76240;50.902;3.892;2024-03-02T13:43:32;11.20;90.80
85696;DHT22;76240;50.902;3.892;2024-03-02T13:45:58;11.30;90.50
85696;DHT22;76240;50.902;3.892;2024-03-02T13:48:24;11.50;90.40
85696;DHT22;76240;50.902;3.892;2024-03-02T13:50:53;11.70;90.10
85696;DHT22;76240;50.902;3.892;2024-03-02T13:53:19;11.80;89.60
85696;DHT22;76240;50.902;3.892;2024-03-02T13:55:45;11.90;88.60
85696;DHT22;76240;50.902;3.892;2024-03-02T13:58:11;11.90;87.70
85696;DHT22;76240;50.902;3.892;2024-03-02T14:00:38;11.70;87.50
85696;DHT22;76240;50.902;3.892;2024-03-02T14:03:05;11.70;88.20
85696;DHT22;76240;50.902;3.892;2024-03-02T14:05:32;11.70;87.00
85696;DHT22;76240;50.902;3.892;2024-03-02T14:07:58;11.70;87.00
85696;DHT22;76240;50.902;3.892;2024-03-02T14:10:25;11.40;86.80
85696;DHT22;76240;50.902;3.892;2024-03-02T14:12:52;11.30;87.50
85696;DHT22;76240;50.902;3.892;2024-03-02T14:15:18;11.30;87.30
85696;DHT22;76240;50.902;3.892;2024-03-02T14:17:44;11.10;86.90
85696;DHT22;76240;50.902;3.892;2024-03-02T14:20:11;11.00;86.40
85696;DHT22;76240;50.902;3.892;2024-03-02T14:22:38;10.90;87.30
85696;DHT22;76240;50.902;3.892;2024-03-02T14:25:05;10.80;86.90
85696;DHT22;76240;50.902;3.892;2024-03-02T14:27:31;10.70;87.90
85696;DHT22;76240;50.902;3.892;2024-03-02T14:29:56;10.70;87.70
85696;DHT22;76240;50.902;3.892;2024-03-02T14:32:22;10.80;88.30
85696;DHT22;76240;50.902;3.892;2024-03-02T14:34:48;10.80;88.20
85696;DHT22;76240;50.902;3.892;2024-03-02T14:37:15;10.90;87.50
85696;DHT22;76240;50.902;3.892;2024-03-02T14:39:41;10.80;86.70
85696;DHT22;76240;50.902;3.892;2024-03-02T14:42:07;10.80;86.20
85696;DHT22;76240;50.902;3.892;2024-03-02T14:44:34;10.80;87.00
85696;DHT22;76240;50.902;3.892;2024-03-02T14:47:02;10.80;88.70
85696;DHT22;76240;50.902;3.892;2024-03-02T14:49:30;10.80;85.90
85696;DHT22;76240;50.902;3.892;2024-03-02T14:51:55;10.80;86.60
85696;DHT22;76240;50.902;3.892;2024-03-02T14:54:21;10.80;88.00
85696;DHT22;76240;50.902;3.892;2024-03-02T14:56:47;10.90;84.90
85696;DHT22;76240;50.902;3.892;2024-03-02T14:59:14;11.10;84.00
85696;DHT22;76240;50.902;3.892;2024-03-02T15:01:40;11.10;84.20
85696;DHT22;76240;50.902;3.892;2024-03-02T15:04:06;11.00;84.20
85696;DHT22;76240;50.902;3.892;2024-03-02T15:06:32;11.10;83.30
85696;DHT22;76240;50.902;3.892;2024-03-02T15:08:58;11.10;81.50
85696;DHT22;76240;50.902;3.892;2024-03-02T15:11:24;11.10;81.30
85696;DHT22;76240;50.902;3.892;2024-03-02T15:13:50;11.00;83.00
85696;DHT22;76240;50.902;3.892;2024-03-02T15:16:16;11.10;82.10
85696;DHT22;76240;50.902;3.892;2024-03-02T15:18:42;11.10;81.10
85696;DHT22;76240;50.902;3.892;2024-03-02T15:21:09;11.20;81.10
85696;DHT22;76240;50.902;3.892;2024-03-02T15:23:35;11.20;81.40
85696;DHT22;76240;50.902;3.892;2024-03-02T15:26:00;11.30;80.40
85696;DHT22;76240;50.902;3.892;2024-03-02T15:28:26;11.30;80.70
85696;DHT22;76240;50.902;3.892;2024-03-02T15:30:53;11.40;80.00
85696;DHT22;76240;50.902;3.892;2024-03-02T15:33:19;11.30;79.00
85696;DHT22;76240;50.902;3.892;2024-03-02T15:35:45;11.40;80.10
85696;DHT22;76240;50.902;3.892;2024-03-02T15:38:10;11.30;80.00
85696;DHT22;76240;50.902;3.892;2024-03-02T15:40:40;11.30;80.70
85696;DHT22;76240;50.902;3.892;2024-03-02T15:43:06;11.40;80.30
85696;DHT22;76240;50.902;3.892;2024-03-02T15:45:32;11.40;80.00
85696;DHT22;76240;50.902;3.892;2024-03-02T15:48:00;11.30;80.10
85696;DHT22;76240;50.902;3.892;2024-03-02T15:50:28;11.30;81.80
85696;DHT22;76240;50.902;3.892;2024-03-02T15:52:54;11.40;81.40